Baraka — ZGAE5 — position and weather

sailwx.info

Track history (hours):
 
Tides and Currents Weather Stations Pressure Air Temp Water Temp Dewpoint Dewpoint Depression Visibility Wind Speed Wind Dir Waves Ship Positions

Baraka

Last reported at 2014-Aug-22 17:24 UTC. Time now 2014-Aug-22 19:39 UTC.
Position N 43°42' E 007°20'.

Length 59 m; draft 3.3 m.

Type: Other ship. MMSI: 319015300.

Date/timePositionNaut miles runAvg speedWind from/ knotsBaromVisibWave heightAir tempDewpointWater temp
2014-Aug-22 17:24N 43°42' E 007°20'0 0.0
2014-Aug-22 16:32N 43°42' E 007°20'0 0.0
2014-Aug-22 15:32N 43°42' E 007°20'0 0.0
2014-Aug-22 14:33N 43°42' E 007°20'0 0.0
2014-Aug-22 13:33N 43°42' E 007°20'0 0.0
2014-Aug-22 12:33N 43°42' E 007°20'0 0.0
2014-Aug-22 11:33N 43°42' E 007°20'0 0.0
2014-Aug-22 10:33N 43°42' E 007°20'0 0.0
2014-Aug-22 09:33N 43°42' E 007°20'0 0.0
2014-Aug-22 08:32N 43°42' E 007°20'0 0.0
2014-Aug-22 07:33N 43°42' E 007°20'0 0.0
2014-Aug-22 06:33N 43°42' E 007°20'0 0.0
2014-Aug-22 05:33N 43°42' E 007°20'0 0.0
2014-Aug-22 04:33N 43°42' E 007°20'0 0.0
2014-Aug-22 03:33N 43°42' E 007°20'0 0.0
2014-Aug-22 02:33N 43°42' E 007°20'0 0.0
2014-Aug-22 01:33N 43°42' E 007°20'0 0.0
2014-Aug-22 00:33N 43°42' E 007°20'0 0.0
2014-Aug-21 23:33N 43°42' E 007°20'0 0.0
2014-Aug-21 22:33N 43°42' E 007°20'0 0.0
2014-Aug-21 21:33N 43°42' E 007°20'0 0.0
2014-Aug-21 20:33N 43°42' E 007°20'0 0.0
2014-Aug-21 19:33N 43°42' E 007°20'0 0.0
2014-Aug-21 18:33N 43°42' E 007°20'0 0.0
2014-Aug-21 17:33N 43°42' E 007°20'0 0.0
2014-Aug-21 16:33N 43°42' E 007°20'0 0.0
2014-Aug-21 15:33N 43°42' E 007°20'0 0.0
2014-Aug-21 14:33N 43°42' E 007°20'0 0.0
2014-Aug-21 13:33N 43°42' E 007°20'0 0.0
2014-Aug-21 12:33N 43°42' E 007°20'0 0.0
2014-Aug-21 11:33N 43°42' E 007°20'0 0.0
2014-Aug-21 10:31N 43°42' E 007°20'0 0.0
2014-Aug-21 09:33N 43°42' E 007°20'0 0.0
2014-Aug-21 08:33N 43°42' E 007°20'0 0.0
2014-Aug-21 07:33N 43°42' E 007°20'0 0.0
2014-Aug-21 06:33N 43°42' E 007°20'0 0.0
2014-Aug-21 05:33N 43°42' E 007°20'0 0.0
2014-Aug-21 04:33N 43°42' E 007°20'0 0.0
2014-Aug-21 03:33N 43°42' E 007°20'0 0.0
2014-Aug-21 02:33N 43°42' E 007°20'0 0.0
2014-Aug-21 01:33N 43°42' E 007°20'0 0.0
2014-Aug-21 00:33N 43°42' E 007°20'0 0.0
2014-Aug-20 23:33N 43°42' E 007°20'0 0.0
2014-Aug-20 22:31N 43°42' E 007°20'0 0.0
2014-Aug-20 21:33N 43°42' E 007°20'0 0.0
2014-Aug-20 20:25N 43°42' E 007°20'0 0.0
2014-Aug-20 19:19N 43°42' E 007°20'0 0.0
2014-Aug-20 18:33N 43°42' E 007°20'0 0.0
2014-Aug-20 17:33N 43°42' E 007°20'0 0.0
2014-Aug-20 16:33N 43°42' E 007°20'0 0.0
2014-Aug-20 15:33N 43°42' E 007°20'0 0.0
2014-Aug-20 14:33N 43°42' E 007°20'0 0.0
2014-Aug-20 13:33N 43°42' E 007°21'1 0.9
2014-Aug-20 12:33N 43°41' E 007°21'9 8.8
2014-Aug-20 11:33N 43°39' E 007°10'4 3.4
2014-Aug-20 10:30N 43°35' E 007°08'0 0.0
2014-Aug-20 09:18N 43°35' E 007°08'0 0.0
2014-Aug-20 08:24N 43°35' E 007°08'0 0.0
2014-Aug-20 07:30N 43°35' E 007°08'0 0.0
2014-Aug-20 06:30N 43°35' E 007°08'0 0.0
2014-Aug-20 05:30N 43°35' E 007°08'0 0.0
2014-Aug-20 04:30N 43°35' E 007°08'0 0.0
2014-Aug-20 03:30N 43°35' E 007°08'0 0.0
2014-Aug-20 02:24N 43°35' E 007°08'0 0.0
2014-Aug-20 01:30N 43°35' E 007°08'0 0.0
2014-Aug-20 00:30N 43°35' E 007°08'0 0.0
2014-Aug-19 23:30N 43°35' E 007°08'0 0.0
2014-Aug-19 22:30N 43°35' E 007°08'0 0.0
2014-Aug-19 21:30N 43°35' E 007°08'0 0.0
2014-Aug-19 20:30N 43°35' E 007°08'0 0.0
2014-Aug-19 19:30N 43°35' E 007°08'0 0.0
2014-Aug-19 18:33N 43°35' E 007°08'5 4.9
2014-Aug-19 17:34N 43°32' E 007°03'0 0.1
2014-Aug-19 16:33N 43°32' E 007°03'0 0.0
2014-Aug-19 15:33N 43°32' E 007°04'0 0.0
2014-Aug-19 14:33N 43°32' E 007°04'0 0.0
2014-Aug-19 13:32N 43°32' E 007°03'0 0.0
2014-Aug-19 12:33N 43°32' E 007°03'0 0.0
2014-Aug-19 11:33N 43°32' E 007°03'7 6.6
2014-Aug-19 10:33N 43°36' E 007°10'4 3.7
2014-Aug-19 09:33N 43°38' E 007°14'6 5.5
2014-Aug-19 08:23N 43°43' E 007°21'0 0.0
2014-Aug-19 07:29N 43°43' E 007°21'0 0.0
2014-Aug-19 06:17N 43°43' E 007°21'0 0.0
2014-Aug-19 05:23N 43°43' E 007°21'0 0.0
2014-Aug-19 04:17N 43°43' E 007°21'0 0.1
2014-Aug-19 03:29N 43°43' E 007°21'0 0.0
2014-Aug-19 02:11N 43°43' E 007°21'0 0.1
2014-Aug-19 01:29N 43°43' E 007°21'0 0.1
2014-Aug-19 00:23N 43°43' E 007°21'0 0.0
2014-Aug-18 23:23N 43°43' E 007°21'0 0.0
2014-Aug-18 22:11N 43°43' E 007°21'0 0.0
2014-Aug-18 21:29N 43°43' E 007°21'0 0.0
2014-Aug-18 20:29N 43°43' E 007°21'0 0.0
2014-Aug-18 19:23N 43°43' E 007°21'0 0.0
2014-Aug-18 18:23N 43°43' E 007°21'0 0.0
2014-Aug-18 17:29N 43°43' E 007°21'1 1.1
2014-Aug-18 16:33N 43°42' E 007°21'1 0.1
2014-Aug-18 08:33N 43°43' E 007°21'0 0.0
2014-Aug-18 07:33N 43°43' E 007°21'0 0.0
2014-Aug-18 06:33N 43°43' E 007°21'0 0.0
2014-Aug-18 04:33N 43°43' E 007°21'0 0.0
2014-Aug-18 03:27N 43°43' E 007°21'0 0.0
2014-Aug-18 02:33N 43°43' E 007°21'0 0.0
2014-Aug-18 01:33N 43°43' E 007°21'0 0.0
2014-Aug-18 00:27N 43°43' E 007°21'0 0.0
2014-Aug-17 18:33N 43°43' E 007°21'0 0.0
2014-Aug-17 17:33N 43°43' E 007°21'0 0.0
2014-Aug-17 16:33N 43°43' E 007°21'0 0.0
2014-Aug-17 15:33N 43°43' E 007°21'0 0.0
2014-Aug-17 14:27N 43°43' E 007°21'0 0.0
2014-Aug-17 13:33N 43°43' E 007°21'0 0.0
2014-Aug-17 12:33N 43°43' E 007°21'0 0.0
2014-Aug-17 11:33N 43°43' E 007°21'0 0.0
2014-Aug-17 10:21N 43°43' E 007°21'0 0.0
2014-Aug-17 09:33N 43°43' E 007°21'0 0.0
2014-Aug-17 08:33N 43°43' E 007°21'0 0.0
2014-Aug-17 07:21N 43°43' E 007°21'0 0.0
2014-Aug-17 06:33N 43°43' E 007°21'0 0.0
2014-Aug-17 05:33N 43°43' E 007°21'0 0.0
2014-Aug-17 04:33N 43°43' E 007°21'0 0.0
2014-Aug-17 03:33N 43°43' E 007°21'0 0.0
2014-Aug-17 02:33N 43°43' E 007°21'0 0.0
2014-Aug-17 01:33N 43°43' E 007°21'0 0.0
2014-Aug-17 00:27N 43°43' E 007°21'0 0.0
2014-Aug-16 22:21N 43°43' E 007°21'0 0.0
2014-Aug-16 21:33N 43°43' E 007°21'0 0.0
2014-Aug-16 20:27N 43°43' E 007°21'0 0.0
2014-Aug-16 19:33N 43°43' E 007°21'0 0.0
2014-Aug-16 18:33N 43°43' E 007°21'0 0.0
2014-Aug-16 17:33N 43°43' E 007°21'0 0.0
2014-Aug-16 16:33N 43°43' E 007°21'0 0.0
2014-Aug-16 15:33N 43°43' E 007°21'0 0.0
2014-Aug-16 14:33N 43°43' E 007°21'0 0.0
2014-Aug-16 12:28N 43°43' E 007°21'5 5.7
2014-Aug-16 11:32N 43°38' E 007°17'5 5.6
2014-Aug-16 10:33N 43°39' E 007°10'7 7.4
2014-Aug-16 09:33N 43°31' E 007°08'9 8.9
2014-Aug-16 08:33N 43°27' E 006°58'7 6.6
2014-Aug-16 07:33N 43°23' E 006°51'8 7.6
2014-Aug-16 06:33N 43°18' E 006°42'4 4.0
2014-Aug-16 05:31N 43°16' E 006°37'0 0.0
2014-Aug-16 04:31N 43°16' E 006°37'0 0.0
2014-Aug-16 03:31N 43°16' E 006°37'0 0.0
2014-Aug-16 02:31N 43°16' E 006°37'0 0.0
2014-Aug-16 01:25N 43°16' E 006°37'0 0.0
2014-Aug-16 00:28N 43°16' E 006°37'0 0.0
2014-Aug-15 23:31N 43°16' E 006°37'0 0.0
2014-Aug-15 22:31N 43°16' E 006°37'0 0.0
2014-Aug-15 21:31N 43°16' E 006°37'0 0.0
2014-Aug-15 20:31N 43°16' E 006°37'0 0.0
2014-Aug-15 19:31N 43°16' E 006°37'0 0.0
2014-Aug-15 18:28N 43°16' E 006°37'0 0.0
2014-Aug-15 17:31N 43°16' E 006°37'0 0.0
2014-Aug-15 16:25N 43°16' E 006°37'0 0.0
2014-Aug-15 15:31N 43°16' E 006°37'0 0.0
2014-Aug-15 14:31N 43°16' E 006°37'0 0.0
2014-Aug-15 13:25N 43°16' E 006°37'0 0.0
2014-Aug-15 12:31N 43°16' E 006°37'0 0.1
2014-Aug-15 11:32N 43°16' E 006°37'1 0.4
2014-Aug-15 10:21N 43°16' E 006°38'0 0.0
2014-Aug-15 09:33N 43°16' E 006°38'0 0.0
2014-Aug-15 08:27N 43°16' E 006°38'0 0.0
2014-Aug-15 07:27N 43°16' E 006°38'0 0.0
2014-Aug-15 06:27N 43°16' E 006°38'0 0.0
2014-Aug-15 05:27N 43°16' E 006°38'0 0.0
2014-Aug-15 04:33N 43°16' E 006°38'0 0.0
2014-Aug-15 03:30N 43°16' E 006°38'0 0.0
2014-Aug-15 02:33N 43°16' E 006°38'0 0.0
2014-Aug-15 01:33N 43°16' E 006°38'0 0.0
2014-Aug-15 00:27N 43°16' E 006°38'0 0.0
2014-Aug-14 23:33N 43°16' E 006°38'0 0.0
2014-Aug-14 22:33N 43°16' E 006°38'0 0.0
2014-Aug-14 21:30N 43°16' E 006°38'0 0.0
2014-Aug-14 20:33N 43°16' E 006°38'0 0.0
2014-Aug-14 19:27N 43°16' E 006°38'0 0.0
2014-Aug-14 18:33N 43°16' E 006°38'0 0.0
2014-Aug-14 17:30N 43°16' E 006°38'0 0.0
2014-Aug-14 16:30N 43°16' E 006°38'0 0.0
2014-Aug-14 15:33N 43°16' E 006°38'0 0.0
2014-Aug-14 14:30N 43°16' E 006°38'0 0.0
2014-Aug-14 13:33N 43°16' E 006°38'6 6.3
2014-Aug-14 12:33N 43°20' E 006°44'9 8.8
2014-Aug-14 11:33N 43°24' E 006°55'1111.0
2014-Aug-14 10:33N 43°31' E 007°07'8 7.6
2014-Aug-14 09:33N 43°38' E 007°10'8 8.1
2014-Aug-14 08:33N 43°40' E 007°21'2 1.7
2014-Aug-14 07:32N 43°42' E 007°21'0 0.0
2014-Aug-14 06:26N 43°42' E 007°21'0 0.0
2014-Aug-14 05:14N 43°42' E 007°21'0 0.0
2014-Aug-14 04:32N 43°42' E 007°21'0 0.0
2014-Aug-14 03:32N 43°42' E 007°21'0 0.0
2014-Aug-14 02:26N 43°42' E 007°21'0 0.0
2014-Aug-14 01:32N 43°42' E 007°21'0 0.0
2014-Aug-14 00:32N 43°42' E 007°21'0 0.0
2014-Aug-13 23:26N 43°42' E 007°21'0 0.0
2014-Aug-13 22:32N 43°42' E 007°21'0 0.0
2014-Aug-13 21:26N 43°42' E 007°21'0 0.0
2014-Aug-13 20:26N 43°42' E 007°21'0 0.0
2014-Aug-13 19:32N 43°42' E 007°21'0 0.0
2014-Aug-13 18:32N 43°42' E 007°21'0 0.0
2014-Aug-13 12:14N 43°42' E 007°21'0 0.1
2014-Aug-13 11:32N 43°42' E 007°21'0 0.0
2014-Aug-13 10:26N 43°42' E 007°21'0 0.0
2014-Aug-13 09:26N 43°42' E 007°21'0 0.0
2014-Aug-13 08:32N 43°42' E 007°21'0 0.0
2014-Aug-13 01:32N 43°42' E 007°21'0 0.0
2014-Aug-13 00:14N 43°42' E 007°21'0 0.0
2014-Aug-12 23:32N 43°42' E 007°21'0 0.0
2014-Aug-12 22:29N 43°42' E 007°20'0 0.0
2014-Aug-12 21:32N 43°42' E 007°20'0 0.0
2014-Aug-12 20:32N 43°42' E 007°20'0 0.0
2014-Aug-12 19:26N 43°42' E 007°20'0 0.0
2014-Aug-12 18:32N 43°42' E 007°20'  
Track history (hours):
 
Tides and Currents Weather Stations Pressure Air Temp Water Temp Dewpoint Dewpoint Depression Visibility Wind Speed Wind Dir Waves Ship Positions

Baraka

Last reported at 2014-Aug-22 17:24 UTC. Time now 2014-Aug-22 19:39 UTC.
Position N 43°42' E 007°20'.

Length 59 m; draft 3.3 m.

Type: Other ship. MMSI: 319015300.

Date/timePositionNaut miles runAvg speedWind from/ knotsBaromVisibWave heightAir tempDewpointWater temp
2014-Aug-22 17:24N 43°42' E 007°20'0 0.0
2014-Aug-22 16:32N 43°42' E 007°20'0 0.0
2014-Aug-22 15:32N 43°42' E 007°20'0 0.0
2014-Aug-22 14:33N 43°42' E 007°20'0 0.0
2014-Aug-22 13:33N 43°42' E 007°20'0 0.0
2014-Aug-22 12:33N 43°42' E 007°20'0 0.0
2014-Aug-22 11:33N 43°42' E 007°20'0 0.0
2014-Aug-22 10:33N 43°42' E 007°20'0 0.0
2014-Aug-22 09:33N 43°42' E 007°20'0 0.0
2014-Aug-22 08:32N 43°42' E 007°20'0 0.0
2014-Aug-22 07:33N 43°42' E 007°20'0 0.0
2014-Aug-22 06:33N 43°42' E 007°20'0 0.0
2014-Aug-22 05:33N 43°42' E 007°20'0 0.0
2014-Aug-22 04:33N 43°42' E 007°20'0 0.0
2014-Aug-22 03:33N 43°42' E 007°20'0 0.0
2014-Aug-22 02:33N 43°42' E 007°20'0 0.0
2014-Aug-22 01:33N 43°42' E 007°20'0 0.0
2014-Aug-22 00:33N 43°42' E 007°20'0 0.0
2014-Aug-21 23:33N 43°42' E 007°20'0 0.0
2014-Aug-21 22:33N 43°42' E 007°20'0 0.0
2014-Aug-21 21:33N 43°42' E 007°20'0 0.0
2014-Aug-21 20:33N 43°42' E 007°20'0 0.0
2014-Aug-21 19:33N 43°42' E 007°20'0 0.0
2014-Aug-21 18:33N 43°42' E 007°20'0 0.0
2014-Aug-21 17:33N 43°42' E 007°20'0 0.0
2014-Aug-21 16:33N 43°42' E 007°20'0 0.0
2014-Aug-21 15:33N 43°42' E 007°20'0 0.0
2014-Aug-21 14:33N 43°42' E 007°20'0 0.0
2014-Aug-21 13:33N 43°42' E 007°20'0 0.0
2014-Aug-21 12:33N 43°42' E 007°20'0 0.0
2014-Aug-21 11:33N 43°42' E 007°20'0 0.0
2014-Aug-21 10:31N 43°42' E 007°20'0 0.0
2014-Aug-21 09:33N 43°42' E 007°20'0 0.0
2014-Aug-21 08:33N 43°42' E 007°20'0 0.0
2014-Aug-21 07:33N 43°42' E 007°20'0 0.0
2014-Aug-21 06:33N 43°42' E 007°20'0 0.0
2014-Aug-21 05:33N 43°42' E 007°20'0 0.0
2014-Aug-21 04:33N 43°42' E 007°20'0 0.0
2014-Aug-21 03:33N 43°42' E 007°20'0 0.0
2014-Aug-21 02:33N 43°42' E 007°20'0 0.0
2014-Aug-21 01:33N 43°42' E 007°20'0 0.0
2014-Aug-21 00:33N 43°42' E 007°20'0 0.0
2014-Aug-20 23:33N 43°42' E 007°20'0 0.0
2014-Aug-20 22:31N 43°42' E 007°20'0 0.0
2014-Aug-20 21:33N 43°42' E 007°20'0 0.0
2014-Aug-20 20:25N 43°42' E 007°20'0 0.0
2014-Aug-20 19:19N 43°42' E 007°20'0 0.0
2014-Aug-20 18:33N 43°42' E 007°20'0 0.0
2014-Aug-20 17:33N 43°42' E 007°20'0 0.0
2014-Aug-20 16:33N 43°42' E 007°20'0 0.0
2014-Aug-20 15:33N 43°42' E 007°20'0 0.0
2014-Aug-20 14:33N 43°42' E 007°20'0 0.0
2014-Aug-20 13:33N 43°42' E 007°21'1 0.9
2014-Aug-20 12:33N 43°41' E 007°21'9 8.8
2014-Aug-20 11:33N 43°39' E 007°10'4 3.4
2014-Aug-20 10:30N 43°35' E 007°08'0 0.0
2014-Aug-20 09:18N 43°35' E 007°08'0 0.0
2014-Aug-20 08:24N 43°35' E 007°08'0 0.0
2014-Aug-20 07:30N 43°35' E 007°08'0 0.0
2014-Aug-20 06:30N 43°35' E 007°08'0 0.0
2014-Aug-20 05:30N 43°35' E 007°08'0 0.0
2014-Aug-20 04:30N 43°35' E 007°08'0 0.0
2014-Aug-20 03:30N 43°35' E 007°08'0 0.0
2014-Aug-20 02:24N 43°35' E 007°08'0 0.0
2014-Aug-20 01:30N 43°35' E 007°08'0 0.0
2014-Aug-20 00:30N 43°35' E 007°08'0 0.0
2014-Aug-19 23:30N 43°35' E 007°08'0 0.0
2014-Aug-19 22:30N 43°35' E 007°08'0 0.0
2014-Aug-19 21:30N 43°35' E 007°08'0 0.0
2014-Aug-19 20:30N 43°35' E 007°08'0 0.0
2014-Aug-19 19:30N 43°35' E 007°08'0 0.0
2014-Aug-19 18:33N 43°35' E 007°08'5 4.9
2014-Aug-19 17:34N 43°32' E 007°03'0 0.1
2014-Aug-19 16:33N 43°32' E 007°03'0 0.0
2014-Aug-19 15:33N 43°32' E 007°04'0 0.0
2014-Aug-19 14:33N 43°32' E 007°04'0 0.0
2014-Aug-19 13:32N 43°32' E 007°03'0 0.0
2014-Aug-19 12:33N 43°32' E 007°03'0 0.0
2014-Aug-19 11:33N 43°32' E 007°03'7 6.6
2014-Aug-19 10:33N 43°36' E 007°10'4 3.7
2014-Aug-19 09:33N 43°38' E 007°14'6 5.5
2014-Aug-19 08:23N 43°43' E 007°21'0 0.0
2014-Aug-19 07:29N 43°43' E 007°21'0 0.0
2014-Aug-19 06:17N 43°43' E 007°21'0 0.0
2014-Aug-19 05:23N 43°43' E 007°21'0 0.0
2014-Aug-19 04:17N 43°43' E 007°21'0 0.1
2014-Aug-19 03:29N 43°43' E 007°21'0 0.0
2014-Aug-19 02:11N 43°43' E 007°21'0 0.1
2014-Aug-19 01:29N 43°43' E 007°21'0 0.1
2014-Aug-19 00:23N 43°43' E 007°21'0 0.0
2014-Aug-18 23:23N 43°43' E 007°21'0 0.0
2014-Aug-18 22:11N 43°43' E 007°21'0 0.0
2014-Aug-18 21:29N 43°43' E 007°21'0 0.0
2014-Aug-18 20:29N 43°43' E 007°21'0 0.0
2014-Aug-18 19:23N 43°43' E 007°21'0 0.0
2014-Aug-18 18:23N 43°43' E 007°21'0 0.0
2014-Aug-18 17:29N 43°43' E 007°21'1 1.1
2014-Aug-18 16:33N 43°42' E 007°21'1 0.1
2014-Aug-18 08:33N 43°43' E 007°21'0 0.0
2014-Aug-18 07:33N 43°43' E 007°21'0 0.0
2014-Aug-18 06:33N 43°43' E 007°21'0 0.0
2014-Aug-18 04:33N 43°43' E 007°21'0 0.0
2014-Aug-18 03:27N 43°43' E 007°21'0 0.0
2014-Aug-18 02:33N 43°43' E 007°21'0 0.0
2014-Aug-18 01:33N 43°43' E 007°21'0 0.0
2014-Aug-18 00:27N 43°43' E 007°21'0 0.0
2014-Aug-17 18:33N 43°43' E 007°21'0 0.0
2014-Aug-17 17:33N 43°43' E 007°21'0 0.0
2014-Aug-17 16:33N 43°43' E 007°21'0 0.0
2014-Aug-17 15:33N 43°43' E 007°21'0 0.0
2014-Aug-17 14:27N 43°43' E 007°21'0 0.0
2014-Aug-17 13:33N 43°43' E 007°21'0 0.0
2014-Aug-17 12:33N 43°43' E 007°21'0 0.0
2014-Aug-17 11:33N 43°43' E 007°21'0 0.0
2014-Aug-17 10:21N 43°43' E 007°21'0 0.0
2014-Aug-17 09:33N 43°43' E 007°21'0 0.0
2014-Aug-17 08:33N 43°43' E 007°21'0 0.0
2014-Aug-17 07:21N 43°43' E 007°21'0 0.0
2014-Aug-17 06:33N 43°43' E 007°21'0 0.0
2014-Aug-17 05:33N 43°43' E 007°21'0 0.0
2014-Aug-17 04:33N 43°43' E 007°21'0 0.0
2014-Aug-17 03:33N 43°43' E 007°21'0 0.0
2014-Aug-17 02:33N 43°43' E 007°21'0 0.0
2014-Aug-17 01:33N 43°43' E 007°21'0 0.0
2014-Aug-17 00:27N 43°43' E 007°21'0 0.0
2014-Aug-16 22:21N 43°43' E 007°21'0 0.0
2014-Aug-16 21:33N 43°43' E 007°21'0 0.0
2014-Aug-16 20:27N 43°43' E 007°21'0 0.0
2014-Aug-16 19:33N 43°43' E 007°21'0 0.0
2014-Aug-16 18:33N 43°43' E 007°21'0 0.0
2014-Aug-16 17:33N 43°43' E 007°21'0 0.0
2014-Aug-16 16:33N 43°43' E 007°21'0 0.0
2014-Aug-16 15:33N 43°43' E 007°21'0 0.0
2014-Aug-16 14:33N 43°43' E 007°21'0 0.0
2014-Aug-16 12:28N 43°43' E 007°21'5 5.7
2014-Aug-16 11:32N 43°38' E 007°17'5 5.6
2014-Aug-16 10:33N 43°39' E 007°10'7 7.4
2014-Aug-16 09:33N 43°31' E 007°08'9 8.9
2014-Aug-16 08:33N 43°27' E 006°58'7 6.6
2014-Aug-16 07:33N 43°23' E 006°51'8 7.6
2014-Aug-16 06:33N 43°18' E 006°42'4 4.0
2014-Aug-16 05:31N 43°16' E 006°37'0 0.0
2014-Aug-16 04:31N 43°16' E 006°37'0 0.0
2014-Aug-16 03:31N 43°16' E 006°37'0 0.0
2014-Aug-16 02:31N 43°16' E 006°37'0 0.0
2014-Aug-16 01:25N 43°16' E 006°37'0 0.0
2014-Aug-16 00:28N 43°16' E 006°37'0 0.0
2014-Aug-15 23:31N 43°16' E 006°37'0 0.0
2014-Aug-15 22:31N 43°16' E 006°37'0 0.0
2014-Aug-15 21:31N 43°16' E 006°37'0 0.0
2014-Aug-15 20:31N 43°16' E 006°37'0 0.0
2014-Aug-15 19:31N 43°16' E 006°37'0 0.0
2014-Aug-15 18:28N 43°16' E 006°37'0 0.0
2014-Aug-15 17:31N 43°16' E 006°37'0 0.0
2014-Aug-15 16:25N 43°16' E 006°37'0 0.0
2014-Aug-15 15:31N 43°16' E 006°37'0 0.0
2014-Aug-15 14:31N 43°16' E 006°37'0 0.0
2014-Aug-15 13:25N 43°16' E 006°37'0 0.0
2014-Aug-15 12:31N 43°16' E 006°37'0 0.1
2014-Aug-15 11:32N 43°16' E 006°37'1 0.4
2014-Aug-15 10:21N 43°16' E 006°38'0 0.0
2014-Aug-15 09:33N 43°16' E 006°38'0 0.0
2014-Aug-15 08:27N 43°16' E 006°38'0 0.0
2014-Aug-15 07:27N 43°16' E 006°38'0 0.0
2014-Aug-15 06:27N 43°16' E 006°38'0 0.0
2014-Aug-15 05:27N 43°16' E 006°38'0 0.0
2014-Aug-15 04:33N 43°16' E 006°38'0 0.0
2014-Aug-15 03:30N 43°16' E 006°38'0 0.0
2014-Aug-15 02:33N 43°16' E 006°38'0 0.0
2014-Aug-15 01:33N 43°16' E 006°38'0 0.0
2014-Aug-15 00:27N 43°16' E 006°38'0 0.0
2014-Aug-14 23:33N 43°16' E 006°38'0 0.0
2014-Aug-14 22:33N 43°16' E 006°38'0 0.0
2014-Aug-14 21:30N 43°16' E 006°38'0 0.0
2014-Aug-14 20:33N 43°16' E 006°38'0 0.0
2014-Aug-14 19:27N 43°16' E 006°38'0 0.0
2014-Aug-14 18:33N 43°16' E 006°38'0 0.0
2014-Aug-14 17:30N 43°16' E 006°38'0 0.0
2014-Aug-14 16:30N 43°16' E 006°38'0 0.0
2014-Aug-14 15:33N 43°16' E 006°38'0 0.0
2014-Aug-14 14:30N 43°16' E 006°38'0 0.0
2014-Aug-14 13:33N 43°16' E 006°38'6 6.3
2014-Aug-14 12:33N 43°20' E 006°44'9 8.8
2014-Aug-14 11:33N 43°24' E 006°55'1111.0
2014-Aug-14 10:33N 43°31' E 007°07'8 7.6
2014-Aug-14 09:33N 43°38' E 007°10'8 8.1
2014-Aug-14 08:33N 43°40' E 007°21'2 1.7
2014-Aug-14 07:32N 43°42' E 007°21'0 0.0
2014-Aug-14 06:26N 43°42' E 007°21'0 0.0
2014-Aug-14 05:14N 43°42' E 007°21'0 0.0
2014-Aug-14 04:32N 43°42' E 007°21'0 0.0
2014-Aug-14 03:32N 43°42' E 007°21'0 0.0
2014-Aug-14 02:26N 43°42' E 007°21'0 0.0
2014-Aug-14 01:32N 43°42' E 007°21'0 0.0
2014-Aug-14 00:32N 43°42' E 007°21'0 0.0
2014-Aug-13 23:26N 43°42' E 007°21'0 0.0
2014-Aug-13 22:32N 43°42' E 007°21'0 0.0
2014-Aug-13 21:26N 43°42' E 007°21'0 0.0
2014-Aug-13 20:26N 43°42' E 007°21'0 0.0
2014-Aug-13 19:32N 43°42' E 007°21'0 0.0
2014-Aug-13 18:32N 43°42' E 007°21'0 0.0
2014-Aug-13 12:14N 43°42' E 007°21'0 0.1
2014-Aug-13 11:32N 43°42' E 007°21'0 0.0
2014-Aug-13 10:26N 43°42' E 007°21'0 0.0
2014-Aug-13 09:26N 43°42' E 007°21'0 0.0
2014-Aug-13 08:32N 43°42' E 007°21'0 0.0
2014-Aug-13 01:32N 43°42' E 007°21'0 0.0
2014-Aug-13 00:14N 43°42' E 007°21'0 0.0
2014-Aug-12 23:32N 43°42' E 007°21'0 0.0
2014-Aug-12 22:29N 43°42' E 007°20'0 0.0
2014-Aug-12 21:32N 43°42' E 007°20'0 0.0
2014-Aug-12 20:32N 43°42' E 007°20'0 0.0
2014-Aug-12 19:26N 43°42' E 007°20'0 0.0
2014-Aug-12 18:32N 43°42' E 007°20'  

Dump ship's entire track history